createdAt,value
2023-03-23T15:59:16.235Z,1.00
2023-03-23T16:01:45.251Z,1.45
2023-03-23T16:04:18.726Z,2.05
2023-03-23T16:06:49.455Z,1.83
2023-03-23T16:09:19.882Z,0.80
2023-03-23T16:11:48.587Z,0.65
2023-03-23T16:14:17.457Z,2.60
2023-03-23T16:16:50.483Z,2.55
2023-03-23T16:19:24.464Z,1.92
2023-03-23T16:21:54.548Z,1.65
2023-03-23T16:24:23.098Z,2.08
2023-03-23T16:26:51.648Z,1.40
2023-03-23T16:29:34.364Z,1.65
2023-03-23T16:32:08.804Z,1.42
2023-03-23T16:34:38.382Z,1.42
2023-03-23T16:37:09.430Z,1.50
2023-03-23T16:39:38.255Z,1.15
2023-03-23T16:42:07.008Z,1.27
2023-03-23T16:44:35.773Z,1.23
2023-03-23T16:47:04.384Z,1.20
2023-03-23T16:49:32.970Z,0.88
2023-03-23T16:52:01.615Z,1.27
2023-03-23T16:54:31.597Z,4.35
2023-03-23T16:57:00.192Z,4.75
2023-03-23T16:59:29.505Z,6.38
2023-03-23T17:02:03.353Z,8.45
2023-03-23T17:04:32.739Z,14.25
2023-03-23T17:07:01.418Z,12.57
2023-03-23T17:09:31.815Z,11.73
2023-03-23T17:12:00.492Z,8.88
2023-03-23T17:14:29.427Z,5.32
2023-03-23T17:16:58.011Z,3.05
2023-03-23T17:19:26.655Z,4.05
2023-03-23T17:21:55.218Z,3.25
2023-03-23T17:24:23.836Z,3.85
2023-03-23T17:26:53.736Z,3.80
2023-03-23T17:29:23.125Z,2.80
2023-03-23T17:31:52.278Z,2.05
2023-03-23T17:34:20.998Z,2.70
2023-03-23T17:36:49.591Z,3.13
2023-03-23T17:39:18.148Z,2.13
2023-03-23T17:41:46.742Z,2.85
2023-03-23T17:44:16.688Z,2.97
2023-03-23T17:46:45.258Z,2.13
2023-03-23T17:49:13.907Z,2.35
2023-03-23T17:51:44.034Z,2.70
2023-03-23T17:54:13.148Z,2.50
2023-03-23T17:56:41.792Z,2.78
2023-03-23T17:59:10.357Z,2.05
2023-03-23T18:01:40.363Z,3.28
2023-03-23T18:04:08.953Z,3.05
2023-03-23T18:06:37.523Z,1.38
2023-03-23T18:09:06.095Z,2.28
2023-03-23T18:11:34.744Z,1.00
2023-03-23T18:14:03.392Z,1.27
2023-03-23T18:16:32.015Z,1.73
2023-03-23T18:19:02.097Z,1.30
2023-03-23T18:21:30.765Z,0.80
2023-03-23T18:24:00.158Z,1.67
2023-03-23T18:26:29.852Z,1.38
2023-03-23T18:28:58.429Z,1.52
2023-03-23T18:31:27.092Z,0.73
2023-03-23T18:33:55.895Z,1.63
2023-03-23T18:36:28.374Z,0.75
2023-03-23T18:38:58.232Z,1.20
2023-03-23T18:41:27.372Z,1.40
2023-03-23T18:43:57.542Z,2.03
2023-03-23T18:46:26.772Z,1.60
2023-03-23T18:48:55.817Z,1.20
2023-03-23T18:51:26.285Z,1.05
2023-03-23T19:19:43.049Z,1.90
2023-03-23T19:22:12.493Z,2.42
2023-03-23T19:24:41.141Z,1.85
2023-03-23T19:27:09.710Z,1.90
2023-03-23T19:29:38.370Z,1.23
2023-03-23T19:32:07.678Z,1.90
2023-03-23T19:34:36.242Z,2.72
2023-03-23T19:37:10.184Z,1.73
2023-03-23T19:39:41.681Z,1.50
2023-03-23T19:42:11.890Z,1.55
2023-03-23T19:44:41.235Z,1.90
2023-03-23T19:47:10.650Z,1.48
2023-03-23T19:49:39.936Z,1.92
2023-03-23T19:52:12.731Z,1.13
2023-03-23T19:54:42.725Z,1.23
2023-03-23T19:57:12.074Z,1.23
2023-03-23T20:02:53.493Z,0.95
2023-03-23T20:05:37.818Z,1.08
2023-03-23T20:08:09.340Z,1.67
2023-03-23T20:10:38.632Z,1.30
2023-03-23T20:13:14.431Z,1.20
2023-03-23T20:15:43.082Z,0.75
2023-03-23T20:18:14.699Z,1.13
2023-03-23T20:23:40.801Z,0.75
2023-03-23T20:26:12.419Z,0.63
2023-03-23T20:28:42.724Z,1.98
2023-03-23T20:31:16.947Z,0.90
2023-03-23T20:34:00.689Z,0.60
2023-03-23T20:36:34.936Z,0.52
2023-03-23T20:39:08.177Z,1.25
2023-03-23T21:04:15.010Z,1.75
2023-03-23T21:06:44.492Z,1.10
2023-03-23T21:09:13.567Z,1.95
2023-03-23T21:11:42.769Z,1.17
2023-03-23T21:14:13.636Z,0.90
2023-03-23T21:16:42.979Z,0.60
2023-03-23T21:19:14.096Z,0.65
2023-03-23T21:21:56.598Z,1.35
2023-03-23T21:27:38.915Z,0.95
2023-03-23T21:30:08.903Z,0.80
2023-03-23T21:32:37.459Z,0.93
2023-03-23T21:35:09.094Z,0.77
2023-03-23T21:37:37.873Z,0.60
2023-03-23T21:40:13.035Z,1.40
2023-03-23T21:42:43.147Z,0.98
2023-03-23T21:45:14.036Z,1.05
2023-03-23T21:47:43.103Z,2.33
2023-03-23T21:50:14.024Z,0.82
2023-03-23T21:52:43.488Z,1.08
2023-03-23T21:55:14.180Z,0.73
2023-03-23T21:57:43.671Z,0.68
2023-03-23T22:00:14.985Z,0.43
2023-03-23T22:02:43.812Z,0.93
2023-03-23T22:05:13.896Z,0.88
2023-03-23T22:07:44.082Z,1.73
2023-03-23T22:10:12.836Z,0.88
2023-03-23T22:12:41.823Z,0.77
2023-03-23T22:15:15.205Z,0.93
2023-03-23T22:17:44.057Z,1.27
2023-03-23T22:20:15.656Z,0.80
2023-03-23T22:22:44.243Z,0.98
2023-03-23T22:25:13.538Z,0.75
2023-03-23T22:27:42.879Z,1.10
2023-03-23T22:30:12.762Z,0.82
2023-03-23T22:32:41.434Z,0.65
2023-03-23T22:35:12.608Z,0.60
2023-03-23T22:37:42.618Z,1.50
2023-03-23T22:40:12.022Z,0.80
2023-03-23T22:42:41.327Z,0.82
2023-03-23T22:45:11.090Z,1.23
2023-03-23T22:47:39.775Z,1.48
2023-03-23T22:50:09.861Z,1.20
2023-03-23T22:52:38.473Z,1.33
2023-03-23T22:55:09.832Z,1.88
2023-03-23T22:57:38.423Z,1.05
2023-03-23T23:00:14.209Z,0.80
2023-03-23T23:02:43.302Z,1.02
2023-03-23T23:05:13.316Z,1.25
2023-03-23T23:07:41.953Z,0.90
2023-03-23T23:10:12.112Z,1.67
2023-03-23T23:12:42.474Z,0.63
2023-03-23T23:15:14.569Z,1.00
2023-03-23T23:17:43.365Z,1.00
2023-03-23T23:20:14.211Z,1.17
2023-03-23T23:22:44.516Z,0.70
2023-03-23T23:25:14.999Z,0.73
2023-03-23T23:27:43.571Z,0.65
2023-03-23T23:30:13.596Z,0.93
2023-03-23T23:32:42.960Z,0.57
2023-03-23T23:35:12.911Z,0.57
2023-03-23T23:54:02.940Z,0.40
2023-03-23T23:56:32.001Z,1.00
2023-03-23T23:59:00.616Z,1.40
